sensor_id;sensor_type;location;lat;lon;timestamp;P1;durP1;ratioP1;P2;durP2;ratioP2
48526;SDS011;34317;51.660;5.824;2023-06-24T00:00:56;17.45;;;11.15;;
48526;SDS011;34317;51.660;5.824;2023-06-24T00:03:24;12.93;;;10.88;;
48526;SDS011;34317;51.660;5.824;2023-06-24T00:05:51;14.25;;;10.90;;
48526;SDS011;34317;51.660;5.824;2023-06-24T00:08:18;15.10;;;11.70;;
48526;SDS011;34317;51.660;5.824;2023-06-24T00:10:48;14.23;;;11.25;;
48526;SDS011;34317;51.660;5.824;2023-06-24T00:13:15;17.20;;;11.32;;
48526;SDS011;34317;51.660;5.824;2023-06-24T00:15:43;14.55;;;11.02;;
48526;SDS011;34317;51.660;5.824;2023-06-24T00:18:10;15.23;;;10.70;;
48526;SDS011;34317;51.660;5.824;2023-06-24T00:20:37;17.80;;;10.38;;
48526;SDS011;34317;51.660;5.824;2023-06-24T00:23:05;13.90;;;10.43;;
48526;SDS011;34317;51.660;5.824;2023-06-24T00:25:32;14.00;;;10.52;;
48526;SDS011;34317;51.660;5.824;2023-06-24T00:27:59;13.95;;;9.88;;
48526;SDS011;34317;51.660;5.824;2023-06-24T00:30:27;15.38;;;10.30;;
48526;SDS011;34317;51.660;5.824;2023-06-24T00:32:55;14.77;;;10.10;;
48526;SDS011;34317;51.660;5.824;2023-06-24T00:35:23;12.48;;;10.32;;
48526;SDS011;34317;51.660;5.824;2023-06-24T00:37:51;13.00;;;9.73;;
48526;SDS011;34317;51.660;5.824;2023-06-24T00:40:24;13.43;;;10.05;;
48526;SDS011;34317;51.660;5.824;2023-06-24T00:42:52;13.02;;;9.85;;
48526;SDS011;34317;51.660;5.824;2023-06-24T00:45:20;12.23;;;10.10;;
48526;SDS011;34317;51.660;5.824;2023-06-24T00:47:47;13.48;;;10.63;;
48526;SDS011;34317;51.660;5.824;2023-06-24T00:50:15;16.15;;;10.80;;
48526;SDS011;34317;51.660;5.824;2023-06-24T00:52:43;14.20;;;9.90;;
48526;SDS011;34317;51.660;5.824;2023-06-24T00:55:10;12.98;;;10.52;;
48526;SDS011;34317;51.660;5.824;2023-06-24T00:57:42;12.73;;;10.18;;
48526;SDS011;34317;51.660;5.824;2023-06-24T01:00:11;12.60;;;10.32;;
48526;SDS011;34317;51.660;5.824;2023-06-24T01:02:44;13.13;;;10.18;;
48526;SDS011;34317;51.660;5.824;2023-06-24T01:05:16;11.95;;;9.93;;
48526;SDS011;34317;51.660;5.824;2023-06-24T01:07:44;12.82;;;10.15;;
48526;SDS011;34317;51.660;5.824;2023-06-24T01:10:22;12.35;;;9.60;;
48526;SDS011;34317;51.660;5.824;2023-06-24T01:12:50;13.13;;;10.43;;
48526;SDS011;34317;51.660;5.824;2023-06-24T01:15:17;13.98;;;10.38;;
48526;SDS011;34317;51.660;5.824;2023-06-24T01:20:45;13.05;;;10.18;;
48526;SDS011;34317;51.660;5.824;2023-06-24T01:23:24;12.98;;;10.25;;
48526;SDS011;34317;51.660;5.824;2023-06-24T01:34:53;14.65;;;10.88;;
48526;SDS011;34317;51.660;5.824;2023-06-24T01:42:44;15.90;;;11.82;;
48526;SDS011;34317;51.660;5.824;2023-06-24T01:45:14;15.27;;;11.93;;
48526;SDS011;34317;51.660;5.824;2023-06-24T01:47:47;15.48;;;12.35;;
48526;SDS011;34317;51.660;5.824;2023-06-24T01:50:16;16.25;;;11.90;;
48526;SDS011;34317;51.660;5.824;2023-06-24T01:52:49;16.07;;;11.87;;
48526;SDS011;34317;51.660;5.824;2023-06-24T01:55:20;16.77;;;12.32;;
48526;SDS011;34317;51.660;5.824;2023-06-24T01:57:48;18.33;;;12.77;;
48526;SDS011;34317;51.660;5.824;2023-06-24T02:00:17;17.88;;;12.23;;
48526;SDS011;34317;51.660;5.824;2023-06-24T02:02:50;15.18;;;11.90;;
48526;SDS011;34317;51.660;5.824;2023-06-24T02:05:19;21.33;;;13.73;;
48526;SDS011;34317;51.660;5.824;2023-06-24T02:07:48;17.73;;;13.05;;
48526;SDS011;34317;51.660;5.824;2023-06-24T02:10:18;22.50;;;13.57;;
48526;SDS011;34317;51.660;5.824;2023-06-24T02:12:48;15.85;;;12.15;;
48526;SDS011;34317;51.660;5.824;2023-06-24T02:15:17;17.50;;;12.60;;
48526;SDS011;34317;51.660;5.824;2023-06-24T02:17:48;18.13;;;13.05;;
48526;SDS011;34317;51.660;5.824;2023-06-24T02:20:18;19.45;;;13.25;;
48526;SDS011;34317;51.660;5.824;2023-06-24T02:22:50;17.15;;;13.63;;
48526;SDS011;34317;51.660;5.824;2023-06-24T02:25:17;16.40;;;12.65;;
48526;SDS011;34317;51.660;5.824;2023-06-24T02:27:44;17.77;;;12.55;;
48526;SDS011;34317;51.660;5.824;2023-06-24T02:30:12;15.82;;;12.32;;
48526;SDS011;34317;51.660;5.824;2023-06-24T02:32:41;16.23;;;12.25;;
48526;SDS011;34317;51.660;5.824;2023-06-24T02:35:08;16.70;;;12.45;;
48526;SDS011;34317;51.660;5.824;2023-06-24T02:37:35;18.65;;;12.75;;
48526;SDS011;34317;51.660;5.824;2023-06-24T02:40:03;20.30;;;13.07;;
48526;SDS011;34317;51.660;5.824;2023-06-24T02:42:32;20.85;;;13.52;;
48526;SDS011;34317;51.660;5.824;2023-06-24T02:44:59;16.88;;;13.02;;
48526;SDS011;34317;51.660;5.824;2023-06-24T02:47:27;19.70;;;12.50;;
48526;SDS011;34317;51.660;5.824;2023-06-24T02:49:55;19.88;;;13.05;;
48526;SDS011;34317;51.660;5.824;2023-06-24T02:52:25;20.02;;;14.23;;
48526;SDS011;34317;51.660;5.824;2023-06-24T02:54:56;15.55;;;12.88;;
48526;SDS011;34317;51.660;5.824;2023-06-24T02:57:43;17.15;;;12.80;;
48526;SDS011;34317;51.660;5.824;2023-06-24T03:00:31;17.92;;;13.70;;
48526;SDS011;34317;51.660;5.824;2023-06-24T03:03:22;16.80;;;12.80;;
48526;SDS011;34317;51.660;5.824;2023-06-24T03:05:53;14.50;;;12.35;;
48526;SDS011;34317;51.660;5.824;2023-06-24T03:08:22;16.95;;;13.02;;
48526;SDS011;34317;51.660;5.824;2023-06-24T03:10:55;16.00;;;12.07;;
48526;SDS011;34317;51.660;5.824;2023-06-24T03:13:24;14.50;;;11.85;;
48526;SDS011;34317;51.660;5.824;2023-06-24T03:16:04;15.77;;;12.07;;
48526;SDS011;34317;51.660;5.824;2023-06-24T03:18:42;15.35;;;11.50;;
48526;SDS011;34317;51.660;5.824;2023-06-24T03:21:10;14.93;;;11.45;;
48526;SDS011;34317;51.660;5.824;2023-06-24T03:23:39;16.77;;;12.82;;
48526;SDS011;34317;51.660;5.824;2023-06-24T03:26:09;18.23;;;13.23;;
48526;SDS011;34317;51.660;5.824;2023-06-24T03:28:37;18.25;;;13.63;;
48526;SDS011;34317;51.660;5.824;2023-06-24T03:31:14;17.77;;;13.32;;
48526;SDS011;34317;51.660;5.824;2023-06-24T03:33:42;17.15;;;13.43;;
48526;SDS011;34317;51.660;5.824;2023-06-24T03:36:13;18.33;;;13.75;;
48526;SDS011;34317;51.660;5.824;2023-06-24T03:38:40;19.30;;;14.10;;
48526;SDS011;34317;51.660;5.824;2023-06-24T03:41:08;18.65;;;14.48;;
48526;SDS011;34317;51.660;5.824;2023-06-24T03:43:35;19.00;;;13.95;;
48526;SDS011;34317;51.660;5.824;2023-06-24T03:46:02;20.98;;;15.50;;
48526;SDS011;34317;51.660;5.824;2023-06-24T03:48:30;20.08;;;15.05;;
48526;SDS011;34317;51.660;5.824;2023-06-24T03:50:57;21.10;;;14.60;;
48526;SDS011;34317;51.660;5.824;2023-06-24T03:53:26;22.20;;;14.65;;
48526;SDS011;34317;51.660;5.824;2023-06-24T03:55:53;18.73;;;15.00;;
48526;SDS011;34317;51.660;5.824;2023-06-24T03:58:20;20.77;;;15.25;;
48526;SDS011;34317;51.660;5.824;2023-06-24T04:00:48;20.13;;;15.13;;
48526;SDS011;34317;51.660;5.824;2023-06-24T04:03:16;20.00;;;15.25;;
48526;SDS011;34317;51.660;5.824;2023-06-24T04:05:46;21.77;;;14.45;;
48526;SDS011;34317;51.660;5.824;2023-06-24T04:08:18;21.88;;;14.70;;
48526;SDS011;34317;51.660;5.824;2023-06-24T04:10:45;20.08;;;13.95;;
48526;SDS011;34317;51.660;5.824;2023-06-24T04:13:12;19.48;;;14.75;;
48526;SDS011;34317;51.660;5.824;2023-06-24T04:15:40;24.27;;;15.90;;
48526;SDS011;34317;51.660;5.824;2023-06-24T04:18:07;21.20;;;16.95;;
48526;SDS011;34317;51.660;5.824;2023-06-24T04:20:35;25.27;;;17.90;;
48526;SDS011;34317;51.660;5.824;2023-06-24T04:23:04;25.95;;;18.33;;
48526;SDS011;34317;51.660;5.824;2023-06-24T04:25:37;24.98;;;18.02;;
48526;SDS011;34317;51.660;5.824;2023-06-24T04:28:04;27.20;;;18.30;;
48526;SDS011;34317;51.660;5.824;2023-06-24T04:30:32;27.13;;;17.83;;
48526;SDS011;34317;51.660;5.824;2023-06-24T04:33:01;24.92;;;17.52;;
48526;SDS011;34317;51.660;5.824;2023-06-24T04:35:29;21.23;;;16.85;;
48526;SDS011;34317;51.660;5.824;2023-06-24T04:37:57;25.55;;;17.50;;
48526;SDS011;34317;51.660;5.824;2023-06-24T04:40:25;22.17;;;16.67;;
48526;SDS011;34317;51.660;5.824;2023-06-24T04:42:52;25.33;;;17.77;;
48526;SDS011;34317;51.660;5.824;2023-06-24T04:45:19;24.83;;;16.60;;
48526;SDS011;34317;51.660;5.824;2023-06-24T04:47:47;24.30;;;17.52;;
48526;SDS011;34317;51.660;5.824;2023-06-24T04:50:15;23.30;;;16.67;;
48526;SDS011;34317;51.660;5.824;2023-06-24T04:52:43;23.02;;;17.67;;
48526;SDS011;34317;51.660;5.824;2023-06-24T04:55:11;22.50;;;17.80;;
48526;SDS011;34317;51.660;5.824;2023-06-24T04:57:38;25.27;;;19.10;;
48526;SDS011;34317;51.660;5.824;2023-06-24T05:00:06;24.88;;;18.10;;
48526;SDS011;34317;51.660;5.824;2023-06-24T05:02:34;23.65;;;17.70;;
48526;SDS011;34317;51.660;5.824;2023-06-24T05:05:01;24.55;;;17.92;;
48526;SDS011;34317;51.660;5.824;2023-06-24T05:07:28;23.70;;;18.48;;
48526;SDS011;34317;51.660;5.824;2023-06-24T05:09:55;21.75;;;17.48;;
48526;SDS011;34317;51.660;5.824;2023-06-24T05:12:22;21.00;;;16.98;;
48526;SDS011;34317;51.660;5.824;2023-06-24T05:14:51;21.52;;;17.25;;
48526;SDS011;34317;51.660;5.824;2023-06-24T05:17:19;23.13;;;17.10;;
48526;SDS011;34317;51.660;5.824;2023-06-24T05:19:47;21.50;;;15.70;;
48526;SDS011;34317;51.660;5.824;2023-06-24T05:22:14;19.50;;;15.35;;
48526;SDS011;34317;51.660;5.824;2023-06-24T05:24:42;20.77;;;15.50;;
48526;SDS011;34317;51.660;5.824;2023-06-24T05:27:09;17.08;;;14.52;;
48526;SDS011;34317;51.660;5.824;2023-06-24T05:29:36;18.92;;;15.20;;
48526;SDS011;34317;51.660;5.824;2023-06-24T05:32:03;18.88;;;14.30;;
48526;SDS011;34317;51.660;5.824;2023-06-24T05:34:31;18.75;;;14.57;;
48526;SDS011;34317;51.660;5.824;2023-06-24T05:36:59;16.10;;;13.50;;
48526;SDS011;34317;51.660;5.824;2023-06-24T05:39:26;17.73;;;13.35;;
48526;SDS011;34317;51.660;5.824;2023-06-24T05:41:53;16.50;;;12.25;;
48526;SDS011;34317;51.660;5.824;2023-06-24T05:44:21;16.08;;;12.23;;
48526;SDS011;34317;51.660;5.824;2023-06-24T05:46:49;14.68;;;11.40;;
48526;SDS011;34317;51.660;5.824;2023-06-24T05:49:17;15.65;;;11.73;;
48526;SDS011;34317;51.660;5.824;2023-06-24T05:51:44;13.40;;;11.00;;
48526;SDS011;34317;51.660;5.824;2023-06-24T05:54:11;14.57;;;10.90;;
48526;SDS011;34317;51.660;5.824;2023-06-24T05:56:39;14.00;;;10.93;;
48526;SDS011;34317;51.660;5.824;2023-06-24T05:59:06;15.15;;;10.77;;
48526;SDS011;34317;51.660;5.824;2023-06-24T06:01:33;14.52;;;10.63;;
48526;SDS011;34317;51.660;5.824;2023-06-24T06:04:01;15.45;;;11.60;;
48526;SDS011;34317;51.660;5.824;2023-06-24T06:06:28;17.05;;;11.23;;
48526;SDS011;34317;51.660;5.824;2023-06-24T06:08:56;15.98;;;11.82;;
48526;SDS011;34317;51.660;5.824;2023-06-24T06:11:23;17.05;;;11.63;;
48526;SDS011;34317;51.660;5.824;2023-06-24T06:13:51;20.33;;;12.18;;
48526;SDS011;34317;51.660;5.824;2023-06-24T06:16:19;17.35;;;11.70;;
48526;SDS011;34317;51.660;5.824;2023-06-24T06:18:46;20.25;;;11.65;;
48526;SDS011;34317;51.660;5.824;2023-06-24T06:21:13;19.58;;;12.02;;
48526;SDS011;34317;51.660;5.824;2023-06-24T06:23:40;17.38;;;11.52;;
48526;SDS011;34317;51.660;5.824;2023-06-24T06:26:08;15.55;;;11.05;;
48526;SDS011;34317;51.660;5.824;2023-06-24T06:28:35;17.05;;;11.75;;
48526;SDS011;34317;51.660;5.824;2023-06-24T06:31:03;14.82;;;11.50;;
48526;SDS011;34317;51.660;5.824;2023-06-24T06:33:30;16.58;;;11.68;;
48526;SDS011;34317;51.660;5.824;2023-06-24T06:35:57;13.82;;;11.38;;
48526;SDS011;34317;51.660;5.824;2023-06-24T06:38:24;16.63;;;10.70;;
48526;SDS011;34317;51.660;5.824;2023-06-24T06:40:51;15.18;;;11.10;;
48526;SDS011;34317;51.660;5.824;2023-06-24T06:43:19;16.40;;;11.85;;
48526;SDS011;34317;51.660;5.824;2023-06-24T06:45:46;13.65;;;10.07;;
48526;SDS011;34317;51.660;5.824;2023-06-24T06:48:13;14.27;;;10.98;;
48526;SDS011;34317;51.660;5.824;2023-06-24T06:50:40;16.50;;;11.07;;
48526;SDS011;34317;51.660;5.824;2023-06-24T06:53:07;14.52;;;9.75;;
48526;SDS011;34317;51.660;5.824;2023-06-24T06:55:35;13.75;;;10.27;;
48526;SDS011;34317;51.660;5.824;2023-06-24T06:58:04;15.63;;;10.48;;
48526;SDS011;34317;51.660;5.824;2023-06-24T07:00:31;12.90;;;9.48;;
48526;SDS011;34317;51.660;5.824;2023-06-24T07:02:58;15.32;;;10.40;;
48526;SDS011;34317;51.660;5.824;2023-06-24T07:05:26;14.88;;;10.52;;
48526;SDS011;34317;51.660;5.824;2023-06-24T07:07:53;14.52;;;10.27;;
48526;SDS011;34317;51.660;5.824;2023-06-24T07:10:20;14.73;;;10.32;;
48526;SDS011;34317;51.660;5.824;2023-06-24T07:12:47;16.55;;;10.43;;
48526;SDS011;34317;51.660;5.824;2023-06-24T07:15:15;13.88;;;10.93;;
48526;SDS011;34317;51.660;5.824;2023-06-24T07:17:46;15.50;;;11.00;;
48526;SDS011;34317;51.660;5.824;2023-06-24T07:20:13;14.88;;;10.85;;
48526;SDS011;34317;51.660;5.824;2023-06-24T07:22:40;13.13;;;10.13;;
48526;SDS011;34317;51.660;5.824;2023-06-24T07:25:07;14.10;;;10.32;;
48526;SDS011;34317;51.660;5.824;2023-06-24T07:27:34;14.13;;;10.15;;
48526;SDS011;34317;51.660;5.824;2023-06-24T07:30:02;13.55;;;9.98;;
48526;SDS011;34317;51.660;5.824;2023-06-24T07:32:29;13.85;;;10.65;;
48526;SDS011;34317;51.660;5.824;2023-06-24T07:34:56;14.30;;;9.68;;
48526;SDS011;34317;51.660;5.824;2023-06-24T07:37:23;10.93;;;8.43;;
48526;SDS011;34317;51.660;5.824;2023-06-24T07:39:51;13.70;;;10.13;;
48526;SDS011;34317;51.660;5.824;2023-06-24T07:42:18;12.52;;;10.02;;
48526;SDS011;34317;51.660;5.824;2023-06-24T07:44:46;14.25;;;10.23;;
48526;SDS011;34317;51.660;5.824;2023-06-24T07:47:16;13.65;;;9.10;;
48526;SDS011;34317;51.660;5.824;2023-06-24T07:49:45;12.00;;;7.93;;
48526;SDS011;34317;51.660;5.824;2023-06-24T07:52:12;10.48;;;6.88;;
48526;SDS011;34317;51.660;5.824;2023-06-24T07:54:40;6.32;;;4.80;;
48526;SDS011;34317;51.660;5.824;2023-06-24T07:57:08;8.18;;;4.55;;
48526;SDS011;34317;51.660;5.824;2023-06-24T07:59:35;7.28;;;4.97;;
48526;SDS011;34317;51.660;5.824;2023-06-24T08:02:02;6.20;;;4.85;;
48526;SDS011;34317;51.660;5.824;2023-06-24T08:04:29;6.53;;;4.75;;
48526;SDS011;34317;51.660;5.824;2023-06-24T08:06:57;5.40;;;4.03;;
48526;SDS011;34317;51.660;5.824;2023-06-24T08:09:24;8.50;;;4.85;;
48526;SDS011;34317;51.660;5.824;2023-06-24T08:11:51;6.70;;;4.80;;
48526;SDS011;34317;51.660;5.824;2023-06-24T08:14:18;4.93;;;4.03;;
48526;SDS011;34317;51.660;5.824;2023-06-24T08:16:45;6.45;;;4.40;;
48526;SDS011;34317;51.660;5.824;2023-06-24T08:19:12;6.43;;;5.13;;
48526;SDS011;34317;51.660;5.824;2023-06-24T08:21:40;7.15;;;5.00;;
48526;SDS011;34317;51.660;5.824;2023-06-24T08:24:08;7.65;;;5.80;;
48526;SDS011;34317;51.660;5.824;2023-06-24T08:26:35;7.60;;;5.20;;
48526;SDS011;34317;51.660;5.824;2023-06-24T08:29:02;9.38;;;6.22;;
48526;SDS011;34317;51.660;5.824;2023-06-24T08:31:30;7.50;;;5.45;;
48526;SDS011;34317;51.660;5.824;2023-06-24T08:34:01;8.82;;;4.95;;
48526;SDS011;34317;51.660;5.824;2023-06-24T08:36:33;11.02;;;6.15;;
48526;SDS011;34317;51.660;5.824;2023-06-24T08:39:00;6.95;;;5.70;;
48526;SDS011;34317;51.660;5.824;2023-06-24T08:41:28;7.55;;;5.35;;
48526;SDS011;34317;51.660;5.824;2023-06-24T08:43:55;9.75;;;5.70;;
48526;SDS011;34317;51.660;5.824;2023-06-24T08:46:23;8.85;;;5.43;;
48526;SDS011;34317;51.660;5.824;2023-06-24T08:48:58;8.30;;;4.88;;
48526;SDS011;34317;51.660;5.824;2023-06-24T08:51:31;7.38;;;5.00;;
48526;SDS011;34317;51.660;5.824;2023-06-24T08:54:02;6.38;;;4.75;;
48526;SDS011;34317;51.660;5.824;2023-06-24T08:56:29;7.65;;;5.10;;
48526;SDS011;34317;51.660;5.824;2023-06-24T08:58:57;5.85;;;4.43;;
48526;SDS011;34317;51.660;5.824;2023-06-24T09:01:24;6.22;;;4.20;;
48526;SDS011;34317;51.660;5.824;2023-06-24T09:03:53;4.82;;;3.63;;
48526;SDS011;34317;51.660;5.824;2023-06-24T09:06:20;5.47;;;4.00;;
48526;SDS011;34317;51.660;5.824;2023-06-24T09:08:56;4.90;;;3.95;;
48526;SDS011;34317;51.660;5.824;2023-06-24T09:11:26;4.05;;;3.13;;
48526;SDS011;34317;51.660;5.824;2023-06-24T09:13:58;5.30;;;3.42;;
48526;SDS011;34317;51.660;5.824;2023-06-24T09:16:26;4.43;;;3.58;;
48526;SDS011;34317;51.660;5.824;2023-06-24T09:18:53;3.60;;;2.92;;
48526;SDS011;34317;51.660;5.824;2023-06-24T09:21:21;7.55;;;3.63;;
48526;SDS011;34317;51.660;5.824;2023-06-24T09:23:51;4.85;;;3.88;;
48526;SDS011;34317;51.660;5.824;2023-06-24T09:26:20;4.95;;;3.70;;
48526;SDS011;34317;51.660;5.824;2023-06-24T09:28:49;4.85;;;3.33;;
48526;SDS011;34317;51.660;5.824;2023-06-24T09:31:17;3.97;;;3.05;;
48526;SDS011;34317;51.660;5.824;2023-06-24T09:33:46;5.35;;;3.20;;
48526;SDS011;34317;51.660;5.824;2023-06-24T09:36:14;4.85;;;3.60;;
48526;SDS011;34317;51.660;5.824;2023-06-24T09:38:42;4.10;;;3.45;;
48526;SDS011;34317;51.660;5.824;2023-06-24T09:41:11;6.82;;;3.38;;
48526;SDS011;34317;51.660;5.824;2023-06-24T09:43:42;4.65;;;3.05;;
48526;SDS011;34317;51.660;5.824;2023-06-24T09:46:12;4.68;;;2.85;;
48526;SDS011;34317;51.660;5.824;2023-06-24T09:48:40;3.97;;;2.63;;
48526;SDS011;34317;51.660;5.824;2023-06-24T09:51:07;10.48;;;4.00;;
48526;SDS011;34317;51.660;5.824;2023-06-24T09:53:35;3.90;;;3.30;;
48526;SDS011;34317;51.660;5.824;2023-06-24T09:56:04;5.97;;;3.38;;
48526;SDS011;34317;51.660;5.824;2023-06-24T09:58:34;3.60;;;3.10;;
48526;SDS011;34317;51.660;5.824;2023-06-24T10:01:04;7.97;;;3.22;;
48526;SDS011;34317;51.660;5.824;2023-06-24T10:03:33;3.83;;;2.88;;
48526;SDS011;34317;51.660;5.824;2023-06-24T10:06:04;3.90;;;2.58;;
48526;SDS011;34317;51.660;5.824;2023-06-24T10:08:31;4.72;;;2.60;;
48526;SDS011;34317;51.660;5.824;2023-06-24T10:10:59;4.18;;;2.80;;
48526;SDS011;34317;51.660;5.824;2023-06-24T10:13:27;3.80;;;3.03;;
48526;SDS011;34317;51.660;5.824;2023-06-24T10:15:58;3.60;;;2.83;;
48526;SDS011;34317;51.660;5.824;2023-06-24T10:18:32;4.93;;;2.63;;
48526;SDS011;34317;51.660;5.824;2023-06-24T10:21:02;4.80;;;2.80;;
48526;SDS011;34317;51.660;5.824;2023-06-24T10:23:31;4.22;;;2.92;;
48526;SDS011;34317;51.660;5.824;2023-06-24T10:26:51;3.40;;;2.70;;
48526;SDS011;34317;51.660;5.824;2023-06-24T10:44:55;3.55;;;2.67;;
48526;SDS011;34317;51.660;5.824;2023-06-24T10:47:23;3.90;;;2.50;;
48526;SDS011;34317;51.660;5.824;2023-06-24T10:49:51;3.97;;;2.80;;
48526;SDS011;34317;51.660;5.824;2023-06-24T10:52:19;3.80;;;2.65;;
48526;SDS011;34317;51.660;5.824;2023-06-24T10:54:48;4.60;;;3.10;;
48526;SDS011;34317;51.660;5.824;2023-06-24T10:57:20;3.97;;;2.92;;
48526;SDS011;34317;51.660;5.824;2023-06-24T10:59:55;4.75;;;3.28;;
48526;SDS011;34317;51.660;5.824;2023-06-24T11:02:24;3.72;;;2.70;;
48526;SDS011;34317;51.660;5.824;2023-06-24T11:04:53;4.75;;;2.80;;
48526;SDS011;34317;51.660;5.824;2023-06-24T11:07:25;5.07;;;3.10;;
48526;SDS011;34317;51.660;5.824;2023-06-24T11:09:54;6.15;;;3.15;;
48526;SDS011;34317;51.660;5.824;2023-06-24T11:12:23;4.45;;;3.30;;
48526;SDS011;34317;51.660;5.824;2023-06-24T11:14:56;3.67;;;2.83;;
48526;SDS011;34317;51.660;5.824;2023-06-24T11:17:27;4.88;;;3.17;;
48526;SDS011;34317;51.660;5.824;2023-06-24T11:19:55;4.57;;;3.30;;
48526;SDS011;34317;51.660;5.824;2023-06-24T11:22:23;6.32;;;3.00;;
48526;SDS011;34317;51.660;5.824;2023-06-24T11:24:51;6.57;;;3.42;;
48526;SDS011;34317;51.660;5.824;2023-06-24T11:27:25;4.97;;;3.22;;
48526;SDS011;34317;51.660;5.824;2023-06-24T11:29:53;4.32;;;3.40;;
48526;SDS011;34317;51.660;5.824;2023-06-24T11:32:21;4.72;;;3.20;;
48526;SDS011;34317;51.660;5.824;2023-06-24T11:34:49;5.78;;;3.05;;
48526;SDS011;34317;51.660;5.824;2023-06-24T11:37:19;3.20;;;2.90;;
48526;SDS011;34317;51.660;5.824;2023-06-24T11:39:59;4.63;;;2.80;;
48526;SDS011;34317;51.660;5.824;2023-06-24T11:42:31;5.78;;;2.78;;
48526;SDS011;34317;51.660;5.824;2023-06-24T11:45:00;4.03;;;2.72;;
48526;SDS011;34317;51.660;5.824;2023-06-24T11:47:32;4.07;;;2.95;;
48526;SDS011;34317;51.660;5.824;2023-06-24T11:50:04;3.42;;;2.50;;
48526;SDS011;34317;51.660;5.824;2023-06-24T11:55:02;4.10;;;2.60;;
48526;SDS011;34317;51.660;5.824;2023-06-24T12:00:23;4.20;;;3.10;;
48526;SDS011;34317;51.660;5.824;2023-06-24T12:02:53;5.55;;;2.78;;
48526;SDS011;34317;51.660;5.824;2023-06-24T12:05:31;4.13;;;2.53;;
48526;SDS011;34317;51.660;5.824;2023-06-24T12:08:06;4.97;;;3.10;;
48526;SDS011;34317;51.660;5.824;2023-06-24T12:10:34;5.90;;;3.38;;
48526;SDS011;34317;51.660;5.824;2023-06-24T12:13:03;4.30;;;3.38;;
48526;SDS011;34317;51.660;5.824;2023-06-24T12:15:32;4.80;;;3.03;;
48526;SDS011;34317;51.660;5.824;2023-06-24T12:18:00;6.03;;;2.85;;
48526;SDS011;34317;51.660;5.824;2023-06-24T12:20:29;4.55;;;3.30;;
48526;SDS011;34317;51.660;5.824;2023-06-24T12:23:02;9.77;;;3.33;;
48526;SDS011;34317;51.660;5.824;2023-06-24T12:25:33;5.25;;;3.30;;
48526;SDS011;34317;51.660;5.824;2023-06-24T12:28:00;4.32;;;3.35;;
48526;SDS011;34317;51.660;5.824;2023-06-24T12:30:28;4.00;;;2.83;;
48526;SDS011;34317;51.660;5.824;2023-06-24T12:32:55;5.25;;;3.30;;
48526;SDS011;34317;51.660;5.824;2023-06-24T12:35:23;4.18;;;2.92;;
48526;SDS011;34317;51.660;5.824;2023-06-24T12:37:53;3.33;;;2.83;;
48526;SDS011;34317;51.660;5.824;2023-06-24T12:40:21;4.35;;;3.03;;
48526;SDS011;34317;51.660;5.824;2023-06-24T12:42:48;3.47;;;2.78;;
48526;SDS011;34317;51.660;5.824;2023-06-24T12:45:15;4.38;;;3.20;;
48526;SDS011;34317;51.660;5.824;2023-06-24T12:47:42;4.65;;;3.15;;
48526;SDS011;34317;51.660;5.824;2023-06-24T12:50:09;5.05;;;3.40;;
48526;SDS011;34317;51.660;5.824;2023-06-24T12:52:37;5.03;;;3.13;;
48526;SDS011;34317;51.660;5.824;2023-06-24T12:55:06;4.80;;;3.03;;
48526;SDS011;34317;51.660;5.824;2023-06-24T12:57:35;3.65;;;2.70;;
48526;SDS011;34317;51.660;5.824;2023-06-24T13:00:03;6.40;;;3.25;;
48526;SDS011;34317;51.660;5.824;2023-06-24T13:02:32;3.60;;;2.83;;
48526;SDS011;34317;51.660;5.824;2023-06-24T13:05:00;5.47;;;3.30;;
48526;SDS011;34317;51.660;5.824;2023-06-24T13:07:28;4.55;;;3.30;;
48526;SDS011;34317;51.660;5.824;2023-06-24T13:09:55;5.32;;;3.55;;
48526;SDS011;34317;51.660;5.824;2023-06-24T13:12:22;5.07;;;3.38;;
48526;SDS011;34317;51.660;5.824;2023-06-24T13:14:49;4.70;;;3.78;;
48526;SDS011;34317;51.660;5.824;2023-06-24T13:17:17;5.47;;;3.00;;
48526;SDS011;34317;51.660;5.824;2023-06-24T13:19:44;4.57;;;3.67;;
48526;SDS011;34317;51.660;5.824;2023-06-24T13:22:11;4.45;;;3.50;;
48526;SDS011;34317;51.660;5.824;2023-06-24T13:24:38;4.60;;;3.33;;
48526;SDS011;34317;51.660;5.824;2023-06-24T13:27:05;5.47;;;3.40;;
48526;SDS011;34317;51.660;5.824;2023-06-24T13:29:33;5.03;;;3.60;;
48526;SDS011;34317;51.660;5.824;2023-06-24T13:32:00;5.22;;;3.63;;
48526;SDS011;34317;51.660;5.824;2023-06-24T13:34:28;6.55;;;3.63;;
48526;SDS011;34317;51.660;5.824;2023-06-24T13:36:55;6.10;;;3.70;;
48526;SDS011;34317;51.660;5.824;2023-06-24T13:39:22;4.53;;;3.35;;
48526;SDS011;34317;51.660;5.824;2023-06-24T13:41:50;5.72;;;3.53;;
48526;SDS011;34317;51.660;5.824;2023-06-24T13:44:19;6.57;;;3.40;;
48526;SDS011;34317;51.660;5.824;2023-06-24T13:46:47;6.63;;;3.70;;
48526;SDS011;34317;51.660;5.824;2023-06-24T13:49:14;5.57;;;4.15;;
48526;SDS011;34317;51.660;5.824;2023-06-24T13:51:42;5.40;;;3.35;;
48526;SDS011;34317;51.660;5.824;2023-06-24T13:54:09;5.28;;;3.67;;
48526;SDS011;34317;51.660;5.824;2023-06-24T13:56:36;6.03;;;3.42;;
48526;SDS011;34317;51.660;5.824;2023-06-24T13:59:03;6.50;;;3.28;;
48526;SDS011;34317;51.660;5.824;2023-06-24T14:01:30;4.50;;;3.47;;
48526;SDS011;34317;51.660;5.824;2023-06-24T14:03:58;5.10;;;4.18;;
48526;SDS011;34317;51.660;5.824;2023-06-24T14:06:25;4.90;;;3.58;;
48526;SDS011;34317;51.660;5.824;2023-06-24T14:08:53;4.68;;;3.22;;
48526;SDS011;34317;51.660;5.824;2023-06-24T14:11:20;5.03;;;3.65;;
48526;SDS011;34317;51.660;5.824;2023-06-24T14:13:48;5.97;;;3.35;;
48526;SDS011;34317;51.660;5.824;2023-06-24T14:16:15;5.55;;;3.50;;
48526;SDS011;34317;51.660;5.824;2023-06-24T14:18:43;4.70;;;3.45;;
48526;SDS011;34317;51.660;5.824;2023-06-24T14:21:11;7.85;;;3.95;;
48526;SDS011;34317;51.660;5.824;2023-06-24T14:26:42;4.80;;;3.47;;
48526;SDS011;34317;51.660;5.824;2023-06-24T14:29:10;6.43;;;3.38;;
48526;SDS011;34317;51.660;5.824;2023-06-24T14:31:37;5.45;;;4.15;;
48526;SDS011;34317;51.660;5.824;2023-06-24T14:34:04;5.05;;;3.78;;
48526;SDS011;34317;51.660;5.824;2023-06-24T14:36:31;6.32;;;4.13;;
48526;SDS011;34317;51.660;5.824;2023-06-24T14:38:58;5.10;;;3.83;;
48526;SDS011;34317;51.660;5.824;2023-06-24T14:41:25;4.13;;;3.17;;
48526;SDS011;34317;51.660;5.824;2023-06-24T14:43:53;5.30;;;3.38;;
48526;SDS011;34317;51.660;5.824;2023-06-24T14:46:20;6.78;;;3.78;;
48526;SDS011;34317;51.660;5.824;2023-06-24T14:48:47;6.07;;;3.50;;
48526;SDS011;34317;51.660;5.824;2023-06-24T14:51:14;4.13;;;3.65;;
48526;SDS011;34317;51.660;5.824;2023-06-24T14:53:41;6.20;;;3.90;;
48526;SDS011;34317;51.660;5.824;2023-06-24T14:56:09;5.45;;;3.58;;
48526;SDS011;34317;51.660;5.824;2023-06-24T14:58:36;4.15;;;3.20;;
48526;SDS011;34317;51.660;5.824;2023-06-24T15:01:03;6.43;;;3.30;;
48526;SDS011;34317;51.660;5.824;2023-06-24T15:03:30;7.28;;;4.28;;
48526;SDS011;34317;51.660;5.824;2023-06-24T15:05:57;5.47;;;3.90;;
48526;SDS011;34317;51.660;5.824;2023-06-24T15:08:24;6.30;;;3.78;;
48526;SDS011;34317;51.660;5.824;2023-06-24T15:10:53;5.22;;;3.72;;
48526;SDS011;34317;51.660;5.824;2023-06-24T15:13:20;6.63;;;3.38;;
48526;SDS011;34317;51.660;5.824;2023-06-24T15:15:47;4.30;;;3.20;;
48526;SDS011;34317;51.660;5.824;2023-06-24T15:18:16;5.68;;;3.70;;
48526;SDS011;34317;51.660;5.824;2023-06-24T15:20:43;7.97;;;4.03;;
48526;SDS011;34317;51.660;5.824;2023-06-24T15:23:10;5.15;;;3.60;;